Time;durP1;ratioP1;P1;durP2;ratioP2;P2;SDS_P1;SDS_P2;PMS_P1;PMS_P2;Temp;Humidity;BMP_temperature;BMP_pressure;BME280_temperature;BME280_humidity;BME280_pressure;Samples;Min_cycle;Max_cycle;Signal;HPM_P1;HPM_P2
2022/05/26 00:01:16;;;;;;;0.50;0.10;;;28.70;34.90;;;;;;4966513;28;20503;-56
2022/05/26 00:03:45;;;;;;;0.90;0.10;;;28.80;35.00;;;;;;4966648;28;20419;-55
2022/05/26 00:06:15;;;;;;;0.30;0.10;;;28.70;34.90;;;;;;4948775;28;20474;-54
2022/05/26 00:08:42;;;;;;;0.47;0.00;;;28.70;34.90;;;;;;4948289;28;20621;-55
2022/05/26 00:11:12;;;;;;;0.75;0.55;;;28.80;35.00;;;;;;4966889;28;20043;-52
2022/05/26 00:13:42;;;;;;;0.30;0.00;;;28.70;35.00;;;;;;4962582;28;20555;-53
2022/05/26 00:16:09;;;;;;;2.38;0.40;;;28.70;35.20;;;;;;4968211;28;20110;-56
2022/05/26 00:18:37;;;;;;;0.00;0.00;;;28.80;35.50;;;;;;4964523;28;20051;-52
2022/05/26 00:21:04;;;;;;;0.32;0.05;;;28.80;35.70;;;;;;4965139;28;20126;-54
2022/05/26 00:23:32;;;;;;;1.20;0.10;;;28.80;35.90;;;;;;4965854;28;20514;-55
2022/05/26 00:25:59;;;;;;;0.10;0.00;;;28.80;36.10;;;;;;4951551;28;20050;-52
2022/05/26 00:28:27;;;;;;;1.05;0.20;;;28.80;36.20;;;;;;4966771;28;20137;-51
2022/05/26 00:30:55;;;;;;;0.32;0.10;;;28.80;36.30;;;;;;4946859;28;20166;-48
2022/05/26 00:33:22;;;;;;;0.40;0.10;;;28.80;36.50;;;;;;4962294;28;20042;-49
2022/05/26 00:35:50;;;;;;;0.30;0.00;;;28.90;36.80;;;;;;4964905;28;20599;-51
2022/05/26 00:38:18;;;;;;;0.10;0.03;;;28.80;36.80;;;;;;4963200;28;20118;-47
2022/05/26 00:40:46;;;;;;;0.13;0.03;;;28.80;36.80;;;;;;4966499;28;20641;-46
2022/05/26 00:43:14;;;;;;;0.10;0.00;;;28.90;37.00;;;;;;4965782;28;20045;-49
2022/05/26 00:45:44;;;;;;;1.33;0.00;;;28.80;37.00;;;;;;4965913;28;20106;-51
2022/05/26 00:48:16;;;;;;;0.00;0.00;;;28.80;37.00;;;;;;4964732;28;20045;-51
2022/05/26 00:50:48;;;;;;;0.30;0.00;;;28.90;37.10;;;;;;4967676;28;20101;-60
2022/05/26 00:53:19;;;;;;;0.10;0.10;;;28.90;37.00;;;;;;4966008;28;20130;-48
2022/05/26 00:55:54;;;;;;;1.35;0.10;;;28.90;37.00;;;;;;4967514;28;20503;-53
2022/05/26 00:58:28;;;;;;;0.05;0.05;;;28.90;37.00;;;;;;4966626;28;20042;-54
2022/05/26 01:00:56;;;;;;;5.28;0.13;;;28.90;36.90;;;;;;4965615;28;20053;-54
2022/05/26 01:03:31;;;;;;;0.03;0.00;;;28.90;36.80;;;;;;4964759;28;20077;-53
2022/05/26 01:06:01;;;;;;;0.85;0.10;;;29.00;36.80;;;;;;4963507;28;20039;-53
2022/05/26 01:08:35;;;;;;;1.75;0.08;;;29.00;36.80;;;;;;4966101;28;20042;-53
2022/05/26 01:11:03;;;;;;;0.57;0.00;;;29.00;36.80;;;;;;4964297;28;20046;-55
2022/05/26 01:13:31;;;;;;;1.48;0.20;;;29.00;36.70;;;;;;4968154;28;20129;-55
2022/05/26 01:16:05;;;;;;;0.45;0.00;;;29.00;36.70;;;;;;4967496;28;20202;-54
2022/05/26 01:18:46;;;;;;;1.15;0.10;;;29.10;36.70;;;;;;4967397;28;20859;-56
2022/05/26 01:21:22;;;;;;;0.10;0.00;;;29.10;36.60;;;;;;4949649;28;20519;-56
2022/05/26 01:24:25;;;;;;;0.10;0.00;;;29.10;36.60;;;;;;4967025;28;20046;-57
2022/05/26 01:27:19;;;;;;;4.97;0.10;;;29.20;36.60;;;;;;4962409;28;20467;-52
2022/05/26 01:30:14;;;;;;;0.38;0.25;;;29.20;36.60;;;;;;4966798;28;20692;-54
2022/05/26 01:33:19;;;;;;;0.10;0.00;;;29.20;36.50;;;;;;4945700;28;20061;-55
2022/05/26 01:35:59;;;;;;;0.65;0.00;;;29.20;36.50;;;;;;4961897;28;20102;-54
2022/05/26 01:38:36;;;;;;;0.10;0.00;;;29.20;36.60;;;;;;4966604;28;20526;-53
2022/05/26 01:41:13;;;;;;;0.05;0.00;;;29.20;36.60;;;;;;4964372;28;20097;-55
2022/05/26 01:43:49;;;;;;;1.73;0.40;;;29.20;37.10;;;;;;4968160;28;20089;-54
2022/05/26 01:46:23;;;;;;;1.58;0.10;;;29.20;36.50;;;;;;4965345;28;20046;-55
2022/05/26 01:48:57;;;;;;;1.35;0.00;;;29.30;36.60;;;;;;4959410;28;20066;-53
2022/05/26 01:51:31;;;;;;;0.85;0.10;;;29.30;36.60;;;;;;4963881;28;20039;-52
2022/05/26 01:54:09;;;;;;;1.98;0.10;;;29.30;36.60;;;;;;4946724;28;20117;-53
2022/05/26 01:56:44;;;;;;;0.40;0.00;;;29.30;37.10;;;;;;4964155;28;20046;-54
2022/05/26 01:59:15;;;;;;;0.65;0.05;;;29.30;36.50;;;;;;4965652;28;20824;-54
2022/05/26 02:01:46;;;;;;;0.73;0.50;;;29.30;36.50;;;;;;4966249;28;20055;-55
2022/05/26 02:04:19;;;;;;;2.58;0.03;;;29.40;36.50;;;;;;4964629;28;20047;-55
2022/05/26 02:06:52;;;;;;;0.10;0.00;;;29.30;36.40;;;;;;4963553;28;20051;-56
2022/05/26 02:09:25;;;;;;;2.63;0.00;;;29.40;36.60;;;;;;4958905;28;20078;-50
2022/05/26 02:11:58;;;;;;;2.60;0.05;;;29.40;36.50;;;;;;4962699;28;20448;-55
2022/05/26 02:14:33;;;;;;;0.57;0.10;;;29.40;36.70;;;;;;4963127;28;20062;-55
2022/05/26 02:17:08;;;;;;;2.47;0.10;;;29.40;36.70;;;;;;4962105;28;20077;-53
2022/05/26 02:19:39;;;;;;;0.65;0.00;;;29.40;36.70;;;;;;4962976;28;20133;-56
2022/05/26 02:22:11;;;;;;;0.63;0.20;;;29.40;36.70;;;;;;4961572;28;20073;-55
2022/05/26 02:24:43;;;;;;;4.25;0.10;;;29.40;36.70;;;;;;4962696;28;20047;-53
2022/05/26 02:27:10;;;;;;;0.00;0.00;;;29.40;36.70;;;;;;4960172;28;20042;-55
2022/05/26 02:32:31;;;;;;;0.47;0.00;;;29.30;36.70;;;;;;4929190;28;20495;-55
2022/05/26 02:35:02;;;;;;;0.38;0.00;;;29.30;37.40;;;;;;4963610;28;20466;-56
2022/05/26 02:37:31;;;;;;;4.47;0.08;;;29.30;36.80;;;;;;4963424;28;20066;-56
2022/05/26 02:39:58;;;;;;;2.47;0.10;;;29.30;36.90;;;;;;4961738;28;20674;-53
2022/05/26 02:42:26;;;;;;;0.57;0.00;;;29.30;36.90;;;;;;4963189;28;20062;-56
2022/05/26 02:44:53;;;;;;;0.80;0.00;;;29.30;36.90;;;;;;4963408;28;20039;-56
2022/05/26 02:47:45;;;;;;;0.40;0.40;;;29.30;36.90;;;;;;4962720;28;20106;-55
2022/05/26 02:50:35;;;;;;;0.20;0.00;;;29.30;36.90;;;;;;4962843;28;20075;-56
2022/05/26 02:53:10;;;;;;;0.30;0.00;;;29.30;37.00;;;;;;4960584;28;20134;-56
2022/05/26 02:55:46;;;;;;;1.08;0.00;;;29.30;37.00;;;;;;4964368;28;20054;-56
2022/05/26 02:58:27;;;;;;;1.00;0.30;;;29.30;37.00;;;;;;4962919;28;20475;-56
2022/05/26 03:01:02;;;;;;;0.13;0.00;;;29.30;37.00;;;;;;4945757;28;20153;-55
2022/05/26 03:03:34;;;;;;;1.17;0.10;;;29.30;37.00;;;;;;4963439;28;20094;-55
2022/05/26 03:06:07;;;;;;;2.92;0.55;;;29.30;37.00;;;;;;4957710;28;20080;-52
2022/05/26 03:08:39;;;;;;;0.40;0.00;;;29.30;37.00;;;;;;4958438;28;20035;-55
2022/05/26 03:11:08;;;;;;;0.35;0.00;;;29.30;37.00;;;;;;4964364;28;20078;-57
2022/05/26 03:13:35;;;;;;;0.80;0.00;;;29.30;37.00;;;;;;4965231;28;20049;-53
2022/05/26 03:16:02;;;;;;;0.47;0.00;;;29.30;37.00;;;;;;4963452;28;20045;-56
2022/05/26 03:18:30;;;;;;;0.40;0.10;;;29.30;37.00;;;;;;4964143;28;20739;-57
2022/05/26 03:20:59;;;;;;;1.55;0.30;;;29.30;37.00;;;;;;4967922;28;20043;-54
2022/05/26 03:23:28;;;;;;;0.25;0.00;;;29.30;37.00;;;;;;4967456;28;20051;-55
2022/05/26 03:25:57;;;;;;;0.75;0.00;;;29.30;37.00;;;;;;4968699;28;20038;-56
2022/05/26 03:28:24;;;;;;;0.15;0.00;;;29.30;37.00;;;;;;4967820;28;20038;-58
2022/05/26 03:30:51;;;;;;;0.10;0.00;;;29.30;37.60;;;;;;4967229;28;20042;-56
2022/05/26 03:33:19;;;;;;;0.03;0.00;;;29.30;37.00;;;;;;4949690;28;20035;-52
2022/05/26 03:41:21;;;;;;;0.63;0.00;;;29.20;37.10;;;;;;4967258;28;20551;-53
2022/05/26 03:43:52;;;;;;;0.40;0.00;;;29.20;37.10;;;;;;4967828;28;20054;-56
2022/05/26 03:46:20;;;;;;;0.43;0.10;;;29.20;37.10;;;;;;4965825;28;20578;-56
2022/05/26 03:48:47;;;;;;;0.13;0.00;;;29.20;37.20;;;;;;4966597;28;20069;-56
2022/05/26 03:51:14;;;;;;;0.10;0.10;;;29.20;37.20;;;;;;4966731;28;20129;-56
2022/05/26 03:53:42;;;;;;;1.05;0.10;;;29.20;37.20;;;;;;4966926;28;20042;-56
2022/05/26 03:56:09;;;;;;;0.22;0.10;;;29.20;37.20;;;;;;4947219;28;20753;-54
2022/05/26 03:58:36;;;;;;;0.20;0.00;;;29.20;37.20;;;;;;4967795;28;20043;-53
2022/05/26 04:01:04;;;;;;;0.82;0.10;;;29.20;37.20;;;;;;4963117;28;20078;-56
2022/05/26 04:03:31;;;;;;;0.10;0.00;;;29.20;37.20;;;;;;4966540;28;20162;-54
2022/05/26 04:05:58;;;;;;;0.68;0.00;;;29.20;37.30;;;;;;4966542;28;20208;-56
2022/05/26 04:08:25;;;;;;;0.22;0.15;;;29.20;37.30;;;;;;4966708;28;20516;-57
2022/05/26 04:10:54;;;;;;;0.10;0.10;;;29.20;37.30;;;;;;4967958;28;20055;-55
2022/05/26 04:13:21;;;;;;;0.10;0.10;;;29.20;37.30;;;;;;4966163;28;20066;-56
2022/05/26 04:15:48;;;;;;;0.28;0.10;;;29.20;37.30;;;;;;4965841;28;20098;-56
2022/05/26 04:18:15;;;;;;;0.82;0.10;;;29.20;37.30;;;;;;4963122;28;20145;-58
2022/05/26 04:20:42;;;;;;;1.00;0.00;;;29.20;37.40;;;;;;4966266;28;20083;-56
2022/05/26 04:23:10;;;;;;;2.85;0.10;;;29.10;37.30;;;;;;4966463;28;20078;-58
2022/05/26 04:25:37;;;;;;;0.47;0.43;;;29.20;37.40;;;;;;4967221;28;20046;-58
2022/05/26 04:28:05;;;;;;;0.10;0.10;;;29.20;37.40;;;;;;4965924;28;20053;-57
2022/05/26 04:30:32;;;;;;;0.30;0.10;;;29.20;37.50;;;;;;4965108;28;20402;-55
2022/05/26 04:33:00;;;;;;;5.53;0.20;;;29.20;37.50;;;;;;4966184;28;20133;-57
2022/05/26 04:35:27;;;;;;;0.10;0.00;;;29.10;37.40;;;;;;4966063;28;20050;-58
2022/05/26 04:37:54;;;;;;;1.40;0.00;;;29.20;37.50;;;;;;4966910;28;20074;-55
2022/05/26 04:40:21;;;;;;;0.00;0.00;;;29.10;37.40;;;;;;4947837;28;20043;-58
2022/05/26 04:42:48;;;;;;;2.92;0.00;;;29.10;37.50;;;;;;4965600;28;20055;-56
2022/05/26 04:45:16;;;;;;;0.10;0.00;;;29.10;37.40;;;;;;4964579;28;20042;-57
2022/05/26 04:47:43;;;;;;;0.50;0.08;;;29.10;37.40;;;;;;4964613;28;20288;-56
2022/05/26 04:50:13;;;;;;;0.25;0.00;;;29.10;37.50;;;;;;4965994;28;20066;-56
2022/05/26 04:52:40;;;;;;;0.80;0.10;;;29.10;37.50;;;;;;4966510;28;20778;-55
2022/05/26 04:55:09;;;;;;;1.80;0.00;;;29.10;37.50;;;;;;4965003;28;20067;-55
2022/05/26 04:57:36;;;;;;;1.00;0.00;;;29.10;37.60;;;;;;4964264;28;20511;-55
2022/05/26 05:00:04;;;;;;;0.55;0.10;;;29.10;37.60;;;;;;4964929;28;20477;-55
2022/05/26 05:02:33;;;;;;;0.10;0.10;;;29.10;37.60;;;;;;4964946;28;20074;-55
2022/05/26 05:05:03;;;;;;;1.73;0.00;;;29.10;37.60;;;;;;4965995;28;20038;-55
2022/05/26 05:07:30;;;;;;;0.77;0.00;;;29.10;37.70;;;;;;4965660;28;20085;-56
2022/05/26 05:09:58;;;;;;;0.63;0.00;;;29.10;37.70;;;;;;4947750;28;20051;-56
2022/05/26 05:12:26;;;;;;;0.25;0.00;;;29.10;37.80;;;;;;4965061;28;20066;-55
2022/05/26 05:14:55;;;;;;;0.10;0.00;;;29.10;37.80;;;;;;4964822;28;20031;-55
2022/05/26 05:17:24;;;;;;;0.20;0.03;;;29.10;37.80;;;;;;4964572;28;20351;-53
2022/05/26 05:19:53;;;;;;;3.00;0.00;;;29.10;37.90;;;;;;4966019;28;20046;-52
2022/05/26 05:22:30;;;;;;;0.55;0.30;;;29.10;37.90;;;;;;4964882;28;20078;-55
2022/05/26 05:25:02;;;;;;;0.52;0.10;;;29.10;37.90;;;;;;4964900;28;20512;-52
2022/05/26 05:27:32;;;;;;;0.10;0.03;;;29.10;38.00;;;;;;4963232;28;20114;-56
2022/05/26 05:30:05;;;;;;;0.20;0.00;;;29.10;38.00;;;;;;4964454;28;20038;-56
2022/05/26 05:32:36;;;;;;;0.30;0.20;;;29.10;38.00;;;;;;4960563;28;20071;-55
2022/05/26 05:35:09;;;;;;;0.52;0.00;;;29.10;38.00;;;;;;4965488;28;20074;-56
2022/05/26 05:37:37;;;;;;;0.85;0.65;;;29.10;38.00;;;;;;4964526;28;20047;-56
2022/05/26 05:40:05;;;;;;;1.17;0.17;;;29.10;38.00;;;;;;4964313;28;20042;-56
2022/05/26 05:42:33;;;;;;;0.90;0.00;;;29.10;38.00;;;;;;4960648;28;20118;-54
2022/05/26 05:45:00;;;;;;;0.45;0.00;;;29.20;38.10;;;;;;4964569;28;20062;-56
2022/05/26 05:47:27;;;;;;;0.15;0.00;;;29.10;38.10;;;;;;4963393;28;20101;-56
2022/05/26 05:49:54;;;;;;;0.10;0.00;;;29.10;38.10;;;;;;4965773;28;20043;-55
2022/05/26 05:52:24;;;;;;;0.20;0.00;;;29.20;38.20;;;;;;4964103;28;20117;-55
2022/05/26 05:54:51;;;;;;;0.93;0.00;;;29.10;38.20;;;;;;4964412;28;20121;-57
2022/05/26 05:57:19;;;;;;;1.45;0.00;;;29.20;38.20;;;;;;4963067;28;20612;-57
2022/05/26 05:59:46;;;;;;;0.38;0.38;;;29.20;38.20;;;;;;4964269;28;20121;-56
2022/05/26 06:02:13;;;;;;;2.95;0.00;;;29.10;38.20;;;;;;4964431;28;20149;-55
2022/05/26 06:04:42;;;;;;;0.50;0.08;;;29.10;38.30;;;;;;4946594;28;20130;-55
2022/05/26 06:07:15;;;;;;;0.00;0.00;;;29.10;38.30;;;;;;4963835;28;20569;-55
2022/05/26 06:09:44;;;;;;;0.10;0.10;;;29.20;38.40;;;;;;4964211;28;20126;-57
2022/05/26 06:12:12;;;;;;;0.10;0.00;;;29.20;38.50;;;;;;4963583;28;20051;-58
2022/05/26 06:14:39;;;;;;;0.30;0.00;;;29.20;38.40;;;;;;4947867;28;20415;-57
2022/05/26 06:17:08;;;;;;;0.35;0.00;;;29.20;38.40;;;;;;4963949;28;20045;-56
2022/05/26 06:19:35;;;;;;;0.80;0.30;;;29.20;38.30;;;;;;4963016;28;20047;-57
2022/05/26 06:22:07;;;;;;;0.00;0.00;;;29.20;38.30;;;;;;4964454;28;20047;-57
2022/05/26 06:24:37;;;;;;;2.55;0.00;;;29.20;38.20;;;;;;4964024;28;20047;-55
2022/05/26 06:29:49;;;;;;;0.80;0.00;;;29.20;38.20;;;;;;4963154;28;20069;-57
2022/05/26 06:29:52;;;;;;;0.00;0.00;;;29.20;38.20;;;;;;4958304;28;20121;-55
2022/05/26 06:37:51;;;;;;;0.73;0.00;;;29.20;38.20;;;;;;4964738;28;20130;-56
2022/05/26 06:40:19;;;;;;;0.30;0.15;;;29.20;38.20;;;;;;4963228;28;20050;-56
2022/05/26 06:42:49;;;;;;;0.85;0.10;;;29.20;38.20;;;;;;4963978;28;20154;-57
2022/05/26 06:45:19;;;;;;;0.00;0.00;;;29.30;38.20;;;;;;4963224;28;20129;-57
2022/05/26 06:47:47;;;;;;;2.25;0.00;;;29.30;38.20;;;;;;4960184;28;20134;-56
2022/05/26 06:50:14;;;;;;;1.10;0.20;;;29.20;38.10;;;;;;4957514;28;20047;-57
2022/05/26 06:52:42;;;;;;;1.52;0.00;;;29.20;38.20;;;;;;4965102;28;20057;-57
2022/05/26 06:55:10;;;;;;;2.08;0.00;;;29.20;38.20;;;;;;4964420;28;20117;-60
2022/05/26 06:57:37;;;;;;;0.55;0.00;;;29.30;38.40;;;;;;4967884;28;20102;-58
2022/05/26 07:00:08;;;;;;;0.73;0.05;;;29.30;38.60;;;;;;4970360;28;20691;-58
2022/05/26 07:02:38;;;;;;;6.03;0.00;;;29.20;38.80;;;;;;4969026;28;20126;-58
2022/05/26 07:05:07;;;;;;;3.00;0.10;;;29.00;38.90;;;;;;4953475;28;20621;-55
2022/05/26 07:07:35;;;;;;;7.63;0.80;;;28.90;39.10;;;;;;4967839;28;20309;-55
2022/05/26 07:10:03;;;;;;;3.97;0.10;;;28.80;39.50;;;;;;4968094;28;20045;-53
2022/05/26 07:12:30;;;;;;;3.38;0.30;;;28.60;39.80;;;;;;4970279;28;20054;-53
2022/05/26 07:14:59;;;;;;;5.80;0.15;;;28.50;40.80;;;;;;4970476;28;20092;-55
2022/05/26 07:17:28;;;;;;;5.78;0.22;;;28.40;40.50;;;;;;4971180;28;20126;-54
2022/05/26 07:19:55;;;;;;;4.28;0.38;;;28.30;40.60;;;;;;4972598;28;20054;-52
2022/05/26 07:22:23;;;;;;;1.73;0.30;;;28.20;40.70;;;;;;4970683;28;20510;-49
2022/05/26 07:24:51;;;;;;;2.50;0.10;;;28.10;40.80;;;;;;4971574;28;20047;-53
2022/05/26 07:27:19;;;;;;;2.92;0.20;;;28.10;40.90;;;;;;4971859;28;20613;-49
2022/05/26 07:29:46;;;;;;;2.58;0.43;;;28.00;41.00;;;;;;4971350;28;20042;-52
2022/05/26 07:32:13;;;;;;;2.30;0.75;;;27.90;41.00;;;;;;4975392;28;20125;-51
2022/05/26 07:34:41;;;;;;;2.70;0.10;;;27.90;41.10;;;;;;4972819;28;20053;-53
2022/05/26 07:42:38;;;;;;;6.03;0.30;;;27.80;41.10;;;;;;4970836;28;20109;-51
2022/05/26 07:45:08;;;;;;;1.42;0.10;;;27.70;41.20;;;;;;4970677;28;20129;-53
2022/05/26 07:47:36;;;;;;;3.53;0.20;;;27.70;41.20;;;;;;4953347;28;21214;-52
2022/05/26 07:50:06;;;;;;;3.55;0.10;;;27.60;41.20;;;;;;4971555;28;20035;-50
2022/05/26 07:52:33;;;;;;;4.55;0.52;;;27.60;41.30;;;;;;4970605;28;20055;-50
2022/05/26 07:55:00;;;;;;;0.88;0.10;;;27.50;41.90;;;;;;4970533;28;20042;-53
2022/05/26 07:57:29;;;;;;;0.10;0.10;;;27.50;41.40;;;;;;4970749;28;20126;-49
2022/05/26 07:59:59;;;;;;;2.42;0.08;;;27.50;41.50;;;;;;4970875;28;20547;-54
2022/05/26 08:02:27;;;;;;;3.38;0.40;;;27.40;41.40;;;;;;4970095;28;20062;-52
2022/05/26 08:04:54;;;;;;;1.08;0.05;;;27.40;41.50;;;;;;4971323;28;20039;-49
2022/05/26 08:07:23;;;;;;;0.70;0.00;;;27.40;41.50;;;;;;4969591;28;20077;-54
2022/05/26 08:09:50;;;;;;;0.10;0.10;;;27.30;41.50;;;;;;4970038;28;20051;-52
2022/05/26 08:12:17;;;;;;;1.02;0.10;;;27.30;41.60;;;;;;4970676;28;20069;-52
2022/05/26 08:14:45;;;;;;;3.30;0.00;;;27.20;41.50;;;;;;4970616;28;20077;-50
2022/05/26 08:17:13;;;;;;;1.45;0.00;;;27.20;41.60;;;;;;4970764;28;20113;-52
2022/05/26 08:19:41;;;;;;;3.75;0.10;;;27.20;41.70;;;;;;4970048;28;20146;-52
2022/05/26 08:22:08;;;;;;;0.05;0.00;;;27.20;41.70;;;;;;4969777;28;20499;-49
2022/05/26 08:24:37;;;;;;;3.33;0.00;;;27.20;41.70;;;;;;4970162;28;20050;-51
2022/05/26 08:27:04;;;;;;;0.45;0.00;;;27.10;41.70;;;;;;4969836;28;20035;-53
2022/05/26 08:29:31;;;;;;;0.30;0.00;;;27.10;41.80;;;;;;4970239;28;20165;-50
2022/05/26 08:31:58;;;;;;;0.63;0.08;;;27.10;41.90;;;;;;4969195;28;20047;-50
2022/05/26 08:34:25;;;;;;;0.20;0.10;;;27.10;41.90;;;;;;4969951;28;20152;-50
2022/05/26 08:36:52;;;;;;;0.50;0.00;;;27.00;41.90;;;;;;4968956;28;20035;-51
2022/05/26 08:39:19;;;;;;;0.10;0.00;;;27.00;41.80;;;;;;4969351;28;20586;-49
2022/05/26 08:41:51;;;;;;;0.10;0.08;;;27.10;41.90;;;;;;4969529;28;20039;-55
2022/05/26 08:44:31;;;;;;;0.70;0.00;;;27.00;41.90;;;;;;4952600;28;20047;-53
2022/05/26 08:47:03;;;;;;;0.85;0.08;;;27.00;41.90;;;;;;4971256;28;20054;-53
2022/05/26 08:49:37;;;;;;;0.20;0.10;;;27.00;42.00;;;;;;4970027;28;20055;-54
2022/05/26 08:52:09;;;;;;;0.10;0.00;;;27.00;42.00;;;;;;4968845;28;20133;-53
2022/05/26 08:54:42;;;;;;;0.30;0.00;;;27.00;41.90;;;;;;4951613;28;20648;-50
2022/05/26 08:57:15;;;;;;;0.88;0.00;;;27.00;41.90;;;;;;4969388;28;20043;-52
2022/05/26 08:59:44;;;;;;;0.08;0.00;;;27.00;41.90;;;;;;4969110;28;20074;-54
2022/05/26 09:02:25;;;;;;;0.77;0.03;;;26.90;41.90;;;;;;4969116;28;20081;-54
2022/05/26 09:04:53;;;;;;;0.35;0.00;;;27.00;41.90;;;;;;4970323;28;20051;-55
2022/05/26 09:12:59;;;;;;;0.10;0.00;;;26.90;41.90;;;;;;4968922;28;20066;-53
2022/05/26 09:15:27;;;;;;;0.82;0.00;;;27.00;42.00;;;;;;4968536;28;20503;-54
2022/05/26 09:17:55;;;;;;;2.35;0.10;;;26.90;41.80;;;;;;4967416;28;20066;-53
2022/05/26 09:20:31;;;;;;;0.00;0.00;;;27.00;41.90;;;;;;4968302;28;20094;-54
2022/05/26 09:23:21;;;;;;;0.08;0.00;;;26.90;41.90;;;;;;4970551;28;20075;-54
2022/05/26 09:25:50;;;;;;;0.38;0.00;;;26.90;41.90;;;;;;4969040;28;20049;-54
2022/05/26 09:28:30;;;;;;;0.00;0.00;;;26.90;42.00;;;;;;4968458;28;20043;-50
2022/05/26 09:31:16;;;;;;;0.05;0.00;;;26.90;42.00;;;;;;4967846;28;20110;-51
2022/05/26 09:33:43;;;;;;;0.17;0.00;;;26.90;42.10;;;;;;4950668;28;20493;-52
2022/05/26 09:36:25;;;;;;;0.10;0.00;;;26.80;42.00;;;;;;4950613;28;20058;-51
2022/05/26 09:38:53;;;;;;;0.30;0.00;;;26.80;42.10;;;;;;4962105;28;20115;-53
2022/05/26 09:41:21;;;;;;;0.10;0.00;;;26.80;42.10;;;;;;4967578;28;20106;-53
2022/05/26 09:43:51;;;;;;;0.00;0.00;;;26.90;42.10;;;;;;4968777;28;20422;-51
2022/05/26 09:46:22;;;;;;;0.08;0.00;;;26.80;42.00;;;;;;4967068;28;20049;-50
2022/05/26 09:48:53;;;;;;;0.00;0.00;;;26.90;42.10;;;;;;4968014;28;20582;-52
2022/05/26 09:51:25;;;;;;;0.10;0.00;;;26.90;42.10;;;;;;4967906;28;20048;-51
2022/05/26 09:53:54;;;;;;;0.05;0.00;;;26.90;42.10;;;;;;4968109;28;20459;-54
2022/05/26 09:56:32;;;;;;;0.22;0.00;;;26.90;42.00;;;;;;4968696;28;20520;-53
2022/05/26 09:59:25;;;;;;;0.32;0.00;;;26.90;41.90;;;;;;4966835;28;20110;-55
2022/05/26 10:01:59;;;;;;;0.40;0.00;;;27.00;41.90;;;;;;4969641;28;20141;-54
2022/05/26 10:04:43;;;;;;;0.10;0.00;;;26.90;41.90;;;;;;4967996;28;20058;-52
2022/05/26 10:07:19;;;;;;;0.25;0.00;;;26.90;41.90;;;;;;4965940;28;20042;-54
2022/05/26 10:09:50;;;;;;;0.57;0.00;;;26.90;41.90;;;;;;4967549;28;20133;-48
2022/05/26 10:12:26;;;;;;;0.10;0.00;;;26.90;41.90;;;;;;4967430;28;20039;-51
2022/05/26 10:15:08;;;;;;;0.05;0.00;;;26.90;41.90;;;;;;4967678;28;20043;-51
2022/05/26 10:17:47;;;;;;;0.00;0.00;;;26.90;41.80;;;;;;4961620;28;20070;-53
2022/05/26 10:20:26;;;;;;;0.20;0.00;;;27.00;41.90;;;;;;4967884;28;20388;-54
2022/05/26 10:23:07;;;;;;;0.00;0.00;;;27.00;41.90;;;;;;4971753;28;20098;-53
2022/05/26 10:25:37;;;;;;;1.65;0.00;;;27.00;42.50;;;;;;4968163;28;20125;-50
2022/05/26 10:28:32;;;;;;;0.00;0.00;;;27.00;41.90;;;;;;4967378;28;20133;-49
2022/05/26 10:31:11;;;;;;;0.10;0.00;;;27.00;41.80;;;;;;4960939;28;20051;-51
2022/05/26 10:34:01;;;;;;;0.10;0.10;;;27.00;41.80;;;;;;4967295;28;20542;-54
2022/05/26 10:36:41;;;;;;;0.00;0.00;;;27.00;42.30;;;;;;4944251;28;20054;-52
2022/05/26 10:39:10;;;;;;;0.00;0.00;;;27.00;41.80;;;;;;4967224;28;20046;-53
2022/05/26 10:41:42;;;;;;;0.00;0.00;;;27.00;41.80;;;;;;4967961;28;20046;-49
2022/05/26 10:44:17;;;;;;;0.00;0.00;;;27.00;41.70;;;;;;4968086;28;20060;-52
2022/05/26 10:46:50;;;;;;;0.47;0.00;;;27.00;41.70;;;;;;4967223;28;20130;-51
2022/05/26 10:49:22;;;;;;;1.33;0.00;;;27.00;41.70;;;;;;4967411;28;20107;-53
2022/05/26 10:51:55;;;;;;;0.20;0.00;;;27.00;41.60;;;;;;4967622;28;20050;-52
2022/05/26 10:54:32;;;;;;;0.00;0.00;;;27.10;41.70;;;;;;4966603;28;20094;-53
2022/05/26 10:57:05;;;;;;;0.17;0.17;;;27.10;41.60;;;;;;4961622;28;20209;-54
2022/05/26 10:59:40;;;;;;;1.67;0.30;;;27.10;41.60;;;;;;4967609;28;20046;-50
2022/05/26 11:02:16;;;;;;;0.28;0.00;;;27.10;41.60;;;;;;4967533;28;20526;-51
2022/05/26 11:04:50;;;;;;;0.20;0.00;;;27.10;41.60;;;;;;4967484;28;20992;-54
2022/05/26 11:07:22;;;;;;;0.10;0.10;;;27.10;41.60;;;;;;4967262;28;20129;-54
2022/05/26 11:09:53;;;;;;;0.00;0.00;;;27.10;41.60;;;;;;4966926;28;20875;-54
2022/05/26 11:12:29;;;;;;;0.28;0.28;;;27.10;41.60;;;;;;4967094;28;20051;-55
2022/05/26 11:17:53;;;;;;;0.10;0.00;;;27.20;41.60;;;;;;4967290;28;20430;-54
2022/05/26 11:20:22;;;;;;;0.00;0.00;;;27.10;41.50;;;;;;4967182;28;20701;-55
2022/05/26 11:22:51;;;;;;;0.00;0.00;;;27.20;41.60;;;;;;4968824;28;20118;-54
2022/05/26 11:25:26;;;;;;;0.82;0.00;;;27.20;41.60;;;;;;4966964;28;20074;-54
2022/05/26 11:27:57;;;;;;;1.25;0.00;;;27.20;41.60;;;;;;4967192;28;20046;-54
2022/05/26 11:36:13;;;;;;;0.00;0.00;;;27.20;41.50;;;;;;4966963;28;20057;-54
2022/05/26 11:38:44;;;;;;;0.10;0.00;;;27.20;41.40;;;;;;4967030;28;20138;-53
2022/05/26 11:41:23;;;;;;;0.32;0.00;;;27.30;41.50;;;;;;4968770;28;20047;-54
2022/05/26 11:44:01;;;;;;;0.08;0.00;;;27.30;41.40;;;;;;4971071;28;20407;-51
2022/05/26 11:46:49;;;;;;;0.20;0.00;;;27.30;41.40;;;;;;4970718;28;20051;-53
2022/05/26 11:49:53;;;;;;;0.82;0.10;;;27.30;41.30;;;;;;4970301;28;20154;-54
2022/05/26 11:52:27;;;;;;;0.10;0.00;;;27.30;41.30;;;;;;4976457;28;20145;-52
2022/05/26 11:55:10;;;;;;;0.05;0.00;;;27.30;41.30;;;;;;4970038;28;20043;-54
2022/05/26 11:57:49;;;;;;;0.05;0.00;;;27.30;41.20;;;;;;4970183;28;20434;-50
2022/05/26 12:00:23;;;;;;;0.10;0.10;;;27.30;41.30;;;;;;4963384;28;20550;-50
2022/05/26 12:03:12;;;;;;;0.00;0.00;;;27.30;41.20;;;;;;4969700;28;20081;-54
2022/05/26 12:05:49;;;;;;;1.27;0.10;;;27.40;41.20;;;;;;4967388;28;20495;-53
2022/05/26 12:08:38;;;;;;;0.10;0.10;;;27.40;41.20;;;;;;4970274;28;20066;-54
2022/05/26 12:11:10;;;;;;;0.30;0.00;;;27.40;41.10;;;;;;4967146;28;20051;-55
2022/05/26 12:13:40;;;;;;;0.00;0.00;;;27.40;41.10;;;;;;4970438;28;20566;-53
2022/05/26 12:16:24;;;;;;;0.00;0.00;;;27.40;41.10;;;;;;4970035;28;20053;-54
2022/05/26 12:18:55;;;;;;;0.20;0.00;;;27.40;41.00;;;;;;4969622;28;20047;-54
2022/05/26 12:21:44;;;;;;;0.10;0.10;;;27.40;41.00;;;;;;4969804;28;20057;-54
2022/05/26 12:25:00;;;;;;;0.20;0.20;;;27.50;41.00;;;;;;4964134;28;20043;-53
2022/05/26 12:28:01;;;;;;;0.43;0.00;;;27.50;41.00;;;;;;4969567;28;20046;-54
2022/05/26 12:31:13;;;;;;;0.20;0.10;;;27.40;40.90;;;;;;4952135;28;20130;-54
2022/05/26 12:34:13;;;;;;;0.03;0.00;;;27.50;40.90;;;;;;4967725;28;20051;-54
2022/05/26 12:37:06;;;;;;;0.10;0.00;;;27.60;41.00;;;;;;4969778;28;20103;-55
2022/05/26 12:40:08;;;;;;;0.15;0.10;;;27.50;40.90;;;;;;4969685;28;20053;-52
2022/05/26 12:42:58;;;;;;;0.10;0.10;;;27.60;40.90;;;;;;4966328;28;20039;-54
2022/05/26 12:45:45;;;;;;;0.00;0.00;;;27.60;40.90;;;;;;4969487;28;20070;-55
2022/05/26 12:48:27;;;;;;;0.30;0.00;;;27.70;40.90;;;;;;4965397;28;20041;-52
2022/05/26 12:51:02;;;;;;;0.00;0.00;;;27.70;40.70;;;;;;4969128;28;20035;-54
2022/05/26 12:53:33;;;;;;;0.40;0.00;;;27.80;40.80;;;;;;4968782;28;20047;-51
2022/05/26 12:56:06;;;;;;;0.15;0.15;;;27.70;40.70;;;;;;4969820;28;20053;-54
2022/05/26 12:58:39;;;;;;;0.75;0.10;;;27.80;40.60;;;;;;4970189;28;20138;-51
2022/05/26 13:01:13;;;;;;;0.25;0.00;;;27.80;40.50;;;;;;4968796;28;20051;-55
2022/05/26 13:03:43;;;;;;;1.20;0.00;;;27.90;40.50;;;;;;4963322;28;20154;-50
2022/05/26 13:06:13;;;;;;;0.10;0.00;;;27.90;40.40;;;;;;4968774;28;20495;-54
2022/05/26 13:08:48;;;;;;;0.38;0.10;;;27.90;40.30;;;;;;4969126;28;20134;-50
2022/05/26 13:11:17;;;;;;;0.20;0.00;;;27.90;40.30;;;;;;4968889;28;20130;-53
2022/05/26 13:13:49;;;;;;;0.08;0.08;;;27.90;40.30;;;;;;4968502;28;20049;-55
2022/05/26 13:16:39;;;;;;;0.20;0.20;;;28.00;40.30;;;;;;4968559;28;20051;-52
2022/05/26 13:19:12;;;;;;;0.00;0.00;;;28.10;40.30;;;;;;4963807;28;20507;-51
2022/05/26 13:21:41;;;;;;;0.25;0.25;;;28.10;40.20;;;;;;4962878;28;20047;-53
2022/05/26 13:24:16;;;;;;;0.00;0.00;;;28.10;40.20;;;;;;4968849;28;20054;-53
2022/05/26 13:26:43;;;;;;;0.00;0.00;;;28.10;40.10;;;;;;4963278;28;20046;-52
2022/05/26 13:29:12;;;;;;;0.00;0.00;;;28.10;40.00;;;;;;4969011;28;20058;-50
2022/05/26 13:34:30;;;;;;;0.00;0.00;;;28.20;39.90;;;;;;4969092;28;20058;-53
2022/05/26 13:36:57;;;;;;;0.10;0.08;;;28.20;39.90;;;;;;4968525;28;20448;-50
2022/05/26 13:39:26;;;;;;;0.00;0.00;;;28.20;39.90;;;;;;4968943;28;20633;-53
2022/05/26 13:41:55;;;;;;;0.55;0.00;;;28.20;39.90;;;;;;4967938;28;20061;-53
2022/05/26 13:44:31;;;;;;;0.20;0.20;;;28.20;39.80;;;;;;4968382;28;20039;-50
2022/05/26 13:47:02;;;;;;;;;;;28.30;39.80;;;;;;4969560;28;20058;-51
2022/05/26 13:49:36;;;;;;;0.00;0.00;;;28.20;39.70;;;;;;4969080;28;20366;-53
2022/05/26 13:52:09;;;;;;;0.03;0.00;;;28.30;39.80;;;;;;4968207;28;20137;-52